createdAt,value
2018-01-27T00:01:02.324Z,2.20
2018-01-27T00:03:30.662Z,2.30
2018-01-27T00:05:58.974Z,2.30
2018-01-27T00:08:27.315Z,2.30
2018-01-27T00:10:55.633Z,2.30
2018-01-27T00:13:23.963Z,2.30
2018-01-27T00:15:52.291Z,2.30
2018-01-27T00:18:20.626Z,2.30
2018-01-27T00:20:48.938Z,2.30
2018-01-27T00:23:17.278Z,2.30
2018-01-27T00:25:45.598Z,2.30
2018-01-27T00:28:13.925Z,2.30
2018-01-27T00:30:42.241Z,2.30
2018-01-27T00:33:10.566Z,2.30
2018-01-27T00:35:38.870Z,2.30
2018-01-27T00:38:07.200Z,2.30
2018-01-27T00:40:35.514Z,2.30
2018-01-27T00:43:03.827Z,2.30
2018-01-27T00:45:32.167Z,2.20
2018-01-27T00:48:00.474Z,2.30
2018-01-27T00:50:28.802Z,2.20
2018-01-27T00:52:57.105Z,2.20
2018-01-27T00:55:25.443Z,2.20
2018-01-27T00:57:53.754Z,2.20
2018-01-27T01:00:22.094Z,2.10
2018-01-27T01:02:50.410Z,2.00
2018-01-27T01:05:18.746Z,1.90
2018-01-27T01:07:47.058Z,1.90
2018-01-27T01:10:15.396Z,1.80
2018-01-27T01:12:43.706Z,1.80
2018-01-27T01:15:12.027Z,1.70
2018-01-27T01:17:40.342Z,1.60
2018-01-27T01:20:08.681Z,1.60
2018-01-27T01:22:36.983Z,1.60
2018-01-27T01:25:05.319Z,1.50
2018-01-27T01:27:33.630Z,1.50
2018-01-27T01:30:01.957Z,1.40
2018-01-27T01:32:30.267Z,1.40
2018-01-27T01:34:58.604Z,1.30
2018-01-27T01:37:26.926Z,1.30
2018-01-27T01:39:55.255Z,1.30
2018-01-27T01:42:29.371Z,1.30
2018-01-27T01:44:57.723Z,1.30
2018-01-27T01:47:26.042Z,1.40
2018-01-27T01:49:54.378Z,1.40
2018-01-27T01:52:22.687Z,1.40
2018-01-27T01:54:51.028Z,1.50
2018-01-27T01:57:19.341Z,1.50
2018-01-27T01:59:47.677Z,1.50
2018-01-27T02:02:15.987Z,1.60
2018-01-27T02:04:44.324Z,1.60
2018-01-27T02:07:12.631Z,1.70
2018-01-27T02:09:40.964Z,1.70
2018-01-27T02:12:09.271Z,1.80
2018-01-27T02:14:37.582Z,1.80
2018-01-27T02:17:05.923Z,1.90
2018-01-27T02:19:34.243Z,1.90
2018-01-27T02:22:02.582Z,1.90
2018-01-27T02:24:30.898Z,1.90
2018-01-27T02:26:59.234Z,1.90
2018-01-27T02:29:27.542Z,1.90
2018-01-27T02:31:55.867Z,1.90
2018-01-27T02:34:24.184Z,1.90
2018-01-27T02:36:52.520Z,1.90
2018-01-27T02:39:20.834Z,2.00
2018-01-27T02:41:49.159Z,2.00
2018-01-27T02:44:16.704Z,2.00
2018-01-27T02:46:45.048Z,2.00
2018-01-27T02:49:13.388Z,2.00
2018-01-27T02:51:41.727Z,2.00
2018-01-27T02:54:10.039Z,2.00
2018-01-27T02:56:38.367Z,2.00
2018-01-27T02:59:06.674Z,2.00
2018-01-27T03:01:35.001Z,2.00
2018-01-27T03:04:03.320Z,2.00
2018-01-27T03:06:31.655Z,2.00
2018-01-27T03:08:59.969Z,2.00
2018-01-27T03:11:28.302Z,2.00
2018-01-27T03:13:56.620Z,2.00
2018-01-27T03:16:24.950Z,2.00
2018-01-27T03:18:53.269Z,2.00
2018-01-27T03:21:21.602Z,2.00
2018-01-27T03:23:49.921Z,2.00
2018-01-27T03:26:18.255Z,2.00
2018-01-27T03:28:46.570Z,2.00
2018-01-27T03:31:14.910Z,2.00
2018-01-27T03:33:43.229Z,2.00
2018-01-27T03:36:11.562Z,2.00
2018-01-27T03:38:39.877Z,2.00
2018-01-27T03:41:08.238Z,2.00
2018-01-27T03:43:36.550Z,1.90
2018-01-27T03:46:04.878Z,1.90
2018-01-27T03:48:33.188Z,1.90
2018-01-27T03:51:01.535Z,2.00
2018-01-27T03:53:29.852Z,1.90
2018-01-27T03:55:58.194Z,1.90
2018-01-27T03:58:26.508Z,1.90
2018-01-27T04:00:54.838Z,1.90
2018-01-27T04:03:23.172Z,1.90
2018-01-27T04:05:51.483Z,1.90
2018-01-27T04:08:19.815Z,1.90
2018-01-27T04:10:48.119Z,1.90
2018-01-27T04:13:16.463Z,1.90
2018-01-27T04:15:44.772Z,1.90
2018-01-27T04:18:13.139Z,1.90
2018-01-27T04:20:41.455Z,1.90
2018-01-27T04:23:09.800Z,1.90
2018-01-27T04:25:38.136Z,1.90
2018-01-27T04:28:06.471Z,1.90
2018-01-27T04:30:34.815Z,1.90
2018-01-27T04:33:03.138Z,1.80
2018-01-27T04:35:31.457Z,1.80
2018-01-27T04:37:59.793Z,1.80
2018-01-27T04:40:28.102Z,1.80
2018-01-27T04:42:56.434Z,1.80
2018-01-27T04:45:24.762Z,1.80
2018-01-27T04:47:53.102Z,1.80
2018-01-27T04:50:21.410Z,1.80
2018-01-27T04:52:49.742Z,1.80
2018-01-27T04:55:18.047Z,1.80
2018-01-27T04:57:46.388Z,1.80
2018-01-27T05:00:14.704Z,1.80
2018-01-27T05:02:43.055Z,1.70
2018-01-27T05:05:11.361Z,1.70
2018-01-27T05:07:39.703Z,1.70
2018-01-27T05:10:08.016Z,1.70
2018-01-27T05:12:36.348Z,1.60
2018-01-27T05:15:04.656Z,1.60
2018-01-27T05:17:32.986Z,1.60
2018-01-27T05:20:01.303Z,1.60
2018-01-27T05:22:28.866Z,1.60
2018-01-27T05:24:57.183Z,1.50
2018-01-27T05:27:25.525Z,1.50
2018-01-27T05:29:53.846Z,1.40
2018-01-27T05:32:22.185Z,1.40
2018-01-27T05:34:50.495Z,1.30
2018-01-27T05:37:18.835Z,1.30
2018-01-27T05:39:47.166Z,1.30
2018-01-27T05:42:15.475Z,1.30
2018-01-27T05:44:43.814Z,1.30
2018-01-27T05:47:12.135Z,1.30
2018-01-27T05:49:40.473Z,1.30
2018-01-27T05:52:08.776Z,1.30
2018-01-27T05:54:37.155Z,1.30
2018-01-27T05:57:05.458Z,1.30
2018-01-27T05:59:33.795Z,1.30
2018-01-27T06:02:02.127Z,1.30
2018-01-27T06:04:30.464Z,1.30
2018-01-27T06:06:58.774Z,1.30
2018-01-27T06:09:27.103Z,1.20
2018-01-27T06:11:55.422Z,1.20
2018-01-27T06:14:23.763Z,1.20
2018-01-27T06:16:52.077Z,1.20
2018-01-27T06:19:20.419Z,1.20
2018-01-27T06:21:48.750Z,1.10
2018-01-27T06:24:17.091Z,1.10
2018-01-27T06:26:45.408Z,1.10
2018-01-27T06:29:13.738Z,1.10
2018-01-27T06:31:42.051Z,1.10
2018-01-27T06:34:10.386Z,1.10
2018-01-27T06:36:38.702Z,1.20
2018-01-27T06:39:07.043Z,1.20
2018-01-27T06:41:35.354Z,1.20
2018-01-27T06:44:03.696Z,1.30
2018-01-27T06:46:32.016Z,1.30
2018-01-27T06:49:00.342Z,1.40
2018-01-27T06:51:28.666Z,1.40
2018-01-27T06:53:57.001Z,1.40
2018-01-27T06:56:25.315Z,1.50
2018-01-27T06:58:53.654Z,1.50
2018-01-27T07:01:21.963Z,1.50
2018-01-27T07:03:50.307Z,1.50
2018-01-27T07:06:18.624Z,1.50
2018-01-27T07:08:46.972Z,1.50
2018-01-27T07:11:15.291Z,1.60
2018-01-27T07:13:43.618Z,1.70
2018-01-27T07:16:11.936Z,1.70
2018-01-27T07:18:40.250Z,1.80
2018-01-27T07:21:08.591Z,1.80
2018-01-27T07:23:36.902Z,1.80
2018-01-27T07:26:05.238Z,1.90
2018-01-27T07:28:33.556Z,1.80
2018-01-27T07:31:01.888Z,1.80
2018-01-27T07:33:30.215Z,1.80
2018-01-27T07:35:58.555Z,1.90
2018-01-27T07:38:26.107Z,1.90
2018-01-27T07:40:54.447Z,2.00
2018-01-27T07:43:22.762Z,2.10
2018-01-27T07:45:51.095Z,2.10
2018-01-27T07:48:19.413Z,2.20
2018-01-27T07:50:47.743Z,2.20
2018-01-27T07:53:16.053Z,2.30
2018-01-27T07:55:44.396Z,2.30
2018-01-27T07:58:12.713Z,2.30
2018-01-27T08:00:41.060Z,2.20
2018-01-27T08:03:09.391Z,2.20
2018-01-27T08:05:37.752Z,2.20
2018-01-27T08:08:06.067Z,2.20
2018-01-27T08:10:34.467Z,2.20
2018-01-27T08:13:02.782Z,2.20
2018-01-27T08:15:31.114Z,2.20
2018-01-27T08:17:59.438Z,2.30
2018-01-27T08:20:27.782Z,2.40
2018-01-27T08:22:56.106Z,2.40
2018-01-27T08:25:24.441Z,2.40
2018-01-27T08:27:52.760Z,2.30
2018-01-27T08:30:21.094Z,2.30
2018-01-27T08:32:49.403Z,2.40
2018-01-27T08:35:17.746Z,2.50
2018-01-27T08:37:46.067Z,2.70
2018-01-27T08:40:14.392Z,2.80
2018-01-27T08:42:42.708Z,2.90
2018-01-27T08:45:11.044Z,2.90
2018-01-27T08:47:39.360Z,2.80
2018-01-27T08:50:07.700Z,2.90
2018-01-27T08:52:36.017Z,2.90
2018-01-27T08:55:04.351Z,3.10
2018-01-27T08:57:32.679Z,3.20
2018-01-27T09:00:00.990Z,3.20
2018-01-27T09:02:29.319Z,3.40
2018-01-27T09:04:57.626Z,3.50
2018-01-27T09:07:25.966Z,3.60
2018-01-27T09:09:54.275Z,3.70
2018-01-27T09:12:22.604Z,3.80
2018-01-27T09:14:50.926Z,3.90
2018-01-27T09:17:19.263Z,4.00
2018-01-27T09:19:47.580Z,4.00
2018-01-27T09:22:15.921Z,4.10
2018-01-27T09:24:44.230Z,4.10
2018-01-27T09:27:12.563Z,4.20
2018-01-27T09:29:40.870Z,4.30
2018-01-27T09:32:09.206Z,4.30
2018-01-27T09:34:37.520Z,4.40
2018-01-27T09:37:05.862Z,4.30
2018-01-27T09:39:34.171Z,4.30
2018-01-27T09:42:02.511Z,4.30
2018-01-27T09:44:30.826Z,4.30
2018-01-27T09:46:59.155Z,4.30
2018-01-27T09:49:27.462Z,4.30
2018-01-27T09:51:55.814Z,4.20
2018-01-27T09:54:24.130Z,4.10
2018-01-27T09:56:51.705Z,4.10
2018-01-27T09:59:20.019Z,4.10
2018-01-27T10:01:48.515Z,4.10
2018-01-27T10:04:16.831Z,4.10
2018-01-27T10:06:45.170Z,4.10
2018-01-27T10:09:13.487Z,4.20
2018-01-27T10:11:41.822Z,4.30
2018-01-27T10:14:10.139Z,4.50
2018-01-27T10:16:38.480Z,4.50
2018-01-27T10:19:06.795Z,4.60
2018-01-27T10:21:35.123Z,4.80
2018-01-27T10:24:03.448Z,4.90
2018-01-27T10:26:31.782Z,5.10
2018-01-27T10:29:00.114Z,5.30
2018-01-27T10:31:28.456Z,5.50
2018-01-27T10:33:56.770Z,5.60
2018-01-27T10:36:25.113Z,5.70
2018-01-27T10:38:53.434Z,5.80
2018-01-27T10:41:21.748Z,5.90
2018-01-27T10:43:50.084Z,6.00
2018-01-27T10:46:18.402Z,6.00
2018-01-27T10:48:46.743Z,6.10
2018-01-27T10:51:15.067Z,6.20
2018-01-27T10:53:43.405Z,6.40
2018-01-27T10:56:11.720Z,6.60
2018-01-27T10:58:40.060Z,6.70
2018-01-27T11:01:08.382Z,6.80
2018-01-27T11:03:36.779Z,7.00
2018-01-27T11:06:05.098Z,7.00
2018-01-27T11:08:33.463Z,7.10
2018-01-27T11:11:01.789Z,7.10
2018-01-27T11:13:30.127Z,7.20
2018-01-27T11:15:58.448Z,7.20
2018-01-27T11:18:26.780Z,7.30
2018-01-27T11:20:55.098Z,7.40
2018-01-27T11:23:23.440Z,7.50
2018-01-27T11:25:51.755Z,7.60
2018-01-27T11:28:20.099Z,7.60
2018-01-27T11:30:48.423Z,7.80
2018-01-27T11:33:16.762Z,7.90
2018-01-27T11:35:45.080Z,7.90
2018-01-27T11:38:13.435Z,8.00
2018-01-27T11:40:41.762Z,8.00
2018-01-27T11:43:10.095Z,8.20
2018-01-27T11:45:38.406Z,8.30
2018-01-27T11:48:06.744Z,8.40
2018-01-27T11:50:35.067Z,8.50
2018-01-27T11:53:03.404Z,8.70
2018-01-27T11:55:31.726Z,8.90
2018-01-27T11:58:00.069Z,9.00
2018-01-27T12:00:28.384Z,9.10
2018-01-27T12:02:56.727Z,9.10
2018-01-27T12:05:25.058Z,9.20
2018-01-27T12:07:53.403Z,9.10
2018-01-27T12:10:21.720Z,9.00
2018-01-27T12:12:50.055Z,9.00
2018-01-27T12:15:18.379Z,9.00
2018-01-27T12:17:45.971Z,9.00
2018-01-27T12:20:14.310Z,9.10
2018-01-27T12:22:42.635Z,9.10
2018-01-27T12:25:10.970Z,9.20
2018-01-27T12:27:39.304Z,9.30
2018-01-27T12:30:07.659Z,9.20
2018-01-27T12:32:35.995Z,9.20
2018-01-27T12:35:04.333Z,9.30
2018-01-27T12:37:32.657Z,9.30
2018-01-27T12:40:01.012Z,9.40
2018-01-27T12:42:29.340Z,9.30
2018-01-27T12:44:57.690Z,9.20
2018-01-27T12:47:26.010Z,9.20
2018-01-27T12:49:54.365Z,9.20
2018-01-27T12:52:22.684Z,9.20
2018-01-27T12:54:51.023Z,9.20
2018-01-27T12:57:19.334Z,9.20
2018-01-27T12:59:47.680Z,9.20
2018-01-27T13:02:16.002Z,9.30
2018-01-27T13:04:44.343Z,9.30
2018-01-27T13:07:12.663Z,9.40
2018-01-27T13:09:41.006Z,9.40
2018-01-27T13:12:09.322Z,9.50
2018-01-27T13:14:37.671Z,9.50
2018-01-27T13:17:06.009Z,9.40
2018-01-27T13:19:34.365Z,9.30
2018-01-27T13:22:02.686Z,9.20
2018-01-27T13:24:31.039Z,9.10
2018-01-27T13:26:59.361Z,9.00
2018-01-27T13:29:27.708Z,9.00
2018-01-27T13:31:56.047Z,8.90
2018-01-27T13:34:24.395Z,8.90
2018-01-27T13:36:52.730Z,8.90
2018-01-27T13:39:21.093Z,8.90
2018-01-27T13:41:49.404Z,8.90
2018-01-27T13:44:17.753Z,8.80
2018-01-27T13:46:46.076Z,8.70
2018-01-27T13:49:14.416Z,8.70
2018-01-27T13:51:42.743Z,8.70
2018-01-27T13:54:11.087Z,8.70
2018-01-27T13:56:39.412Z,8.70
2018-01-27T13:59:07.730Z,8.70
2018-01-27T14:01:36.064Z,8.70
2018-01-27T14:04:04.385Z,8.70
2018-01-27T14:06:32.727Z,8.70
2018-01-27T14:09:01.355Z,8.70
2018-01-27T14:11:29.700Z,8.60
2018-01-27T14:13:58.063Z,8.70
2018-01-27T14:16:26.392Z,8.70
2018-01-27T14:18:54.726Z,8.70
2018-01-27T14:21:23.078Z,8.60
2018-01-27T14:23:51.393Z,8.50
2018-01-27T14:26:19.732Z,8.40
2018-01-27T14:28:48.059Z,8.30
2018-01-27T14:31:16.392Z,8.20
2018-01-27T14:33:44.711Z,8.10
2018-01-27T14:36:13.051Z,8.00
2018-01-27T14:38:41.362Z,7.90
2018-01-27T14:41:09.698Z,7.80
2018-01-27T14:43:38.023Z,7.80
2018-01-27T14:46:06.361Z,7.70
2018-01-27T14:48:34.668Z,7.80
2018-01-27T14:51:03.005Z,7.80
2018-01-27T14:53:31.319Z,7.70
2018-01-27T14:55:59.668Z,7.70
2018-01-27T14:58:27.983Z,7.60
2018-01-27T15:00:56.317Z,7.60
2018-01-27T15:03:24.634Z,7.50
2018-01-27T15:05:52.966Z,7.40
2018-01-27T15:08:21.288Z,7.20
2018-01-27T15:10:49.627Z,7.10
2018-01-27T15:13:17.945Z,6.90
2018-01-27T15:15:46.280Z,6.80
2018-01-27T15:18:13.851Z,6.80
2018-01-27T15:20:42.186Z,6.70
2018-01-27T15:23:10.497Z,6.60
2018-01-27T15:25:38.826Z,6.60
2018-01-27T15:28:07.159Z,6.50
2018-01-27T15:30:35.494Z,6.40
2018-01-27T15:33:03.822Z,6.40
2018-01-27T15:35:32.163Z,6.30
2018-01-27T15:38:00.479Z,6.30
2018-01-27T15:40:28.792Z,6.20
2018-01-27T15:42:57.157Z,6.20
2018-01-27T15:45:25.479Z,6.10
2018-01-27T15:47:53.807Z,6.10
2018-01-27T15:50:22.123Z,6.00
2018-01-27T15:52:50.480Z,6.00
2018-01-27T15:55:18.787Z,5.90
2018-01-27T15:57:47.122Z,5.80
2018-01-27T16:00:15.445Z,5.80
2018-01-27T16:02:43.785Z,5.70
2018-01-27T16:05:12.103Z,5.60
2018-01-27T16:07:40.438Z,5.60
2018-01-27T16:10:08.759Z,5.50
2018-01-27T16:12:37.090Z,5.50
2018-01-27T16:15:05.417Z,5.40
2018-01-27T16:17:33.768Z,5.40
2018-01-27T16:20:02.092Z,5.30
2018-01-27T16:22:30.432Z,5.30
2018-01-27T16:24:58.782Z,5.30
2018-01-27T16:27:27.128Z,5.30
2018-01-27T16:29:55.451Z,5.20
2018-01-27T16:32:23.791Z,5.20
2018-01-27T16:34:52.108Z,5.20
2018-01-27T16:37:20.443Z,5.10
2018-01-27T16:39:48.756Z,5.10
2018-01-27T16:42:17.735Z,5.00
2018-01-27T16:44:46.058Z,5.00
2018-01-27T16:47:14.395Z,4.90
2018-01-27T16:49:42.715Z,4.90
2018-01-27T16:52:11.057Z,4.90
2018-01-27T16:54:39.388Z,4.80
2018-01-27T16:57:07.743Z,4.80
2018-01-27T16:59:36.058Z,4.80
2018-01-27T17:02:04.390Z,4.70
2018-01-27T17:04:32.695Z,4.70
2018-01-27T17:07:01.028Z,4.70
2018-01-27T17:09:29.330Z,4.70
2018-01-27T17:11:57.671Z,4.70
2018-01-27T17:14:25.985Z,4.70
2018-01-27T17:16:54.283Z,4.70
2018-01-27T17:19:22.622Z,4.60
2018-01-27T17:21:50.937Z,4.70
2018-01-27T17:24:19.272Z,4.70
2018-01-27T17:26:47.582Z,4.70
2018-01-27T17:29:15.920Z,4.70
2018-01-27T17:31:44.242Z,4.80
2018-01-27T17:34:12.571Z,4.80
2018-01-27T17:36:40.880Z,4.80
2018-01-27T17:39:09.251Z,4.80
2018-01-27T17:41:37.553Z,4.80
2018-01-27T17:44:05.887Z,4.80
2018-01-27T17:46:34.206Z,4.80
2018-01-27T17:49:02.539Z,4.80
2018-01-27T17:51:30.857Z,4.80
2018-01-27T17:53:59.195Z,4.70
2018-01-27T17:56:27.513Z,4.70
2018-01-27T17:58:55.838Z,4.70
2018-01-27T18:01:24.173Z,4.70
2018-01-27T18:03:52.543Z,4.70
2018-01-27T18:06:20.851Z,4.70
2018-01-27T18:08:49.190Z,4.70
2018-01-27T18:11:17.497Z,4.60
2018-01-27T18:13:45.831Z,4.60
2018-01-27T18:16:13.374Z,4.60
2018-01-27T18:18:41.725Z,4.60
2018-01-27T18:21:10.039Z,4.60
2018-01-27T18:23:38.367Z,4.60
2018-01-27T18:26:06.680Z,4.60
2018-01-27T18:28:35.014Z,4.60
2018-01-27T18:31:03.325Z,4.60
2018-01-27T18:33:31.684Z,4.60
2018-01-27T18:35:59.998Z,4.50
2018-01-27T18:38:27.571Z,4.50
2018-01-27T18:40:55.884Z,4.50
2018-01-27T18:43:24.223Z,4.50
2018-01-27T18:45:52.531Z,4.50
2018-01-27T18:48:20.861Z,4.50
2018-01-27T18:50:49.198Z,4.60
2018-01-27T18:53:17.512Z,4.60
2018-01-27T18:55:45.848Z,4.60
2018-01-27T18:58:14.168Z,4.60
2018-01-27T19:00:42.498Z,4.50
2018-01-27T19:03:10.802Z,4.60
2018-01-27T19:05:39.165Z,4.60
2018-01-27T19:08:07.462Z,4.60
2018-01-27T19:10:35.798Z,4.60
2018-01-27T19:13:04.109Z,4.60
2018-01-27T19:15:32.447Z,4.60
2018-01-27T19:18:00.787Z,4.70
2018-01-27T19:20:29.122Z,4.70
2018-01-27T19:22:57.483Z,4.70
2018-01-27T19:25:25.824Z,4.70
2018-01-27T19:27:54.142Z,4.70
2018-01-27T19:30:22.475Z,4.70
2018-01-27T19:32:50.786Z,4.70
2018-01-27T19:35:19.129Z,4.70
2018-01-27T19:37:47.443Z,4.70
2018-01-27T19:40:15.810Z,4.70
2018-01-27T19:42:44.114Z,4.80
2018-01-27T19:45:12.654Z,4.70
2018-01-27T19:47:40.968Z,4.70
2018-01-27T19:50:09.306Z,4.80
2018-01-27T19:52:37.623Z,4.80
2018-01-27T19:55:05.962Z,4.80
2018-01-27T19:57:34.319Z,4.80
2018-01-27T20:00:02.664Z,4.80
2018-01-27T20:02:31.067Z,4.80
2018-01-27T20:04:59.414Z,4.80
2018-01-27T20:07:27.732Z,4.80
2018-01-27T20:09:56.091Z,4.80
2018-01-27T20:12:24.423Z,4.80
2018-01-27T20:14:52.762Z,4.80
2018-01-27T20:17:21.089Z,4.80
2018-01-27T20:19:49.402Z,4.80
2018-01-27T20:22:17.788Z,4.80
2018-01-27T20:24:46.112Z,4.70
2018-01-27T20:27:14.447Z,4.80
2018-01-27T20:29:42.772Z,4.70
2018-01-27T20:32:11.144Z,4.70
2018-01-27T20:34:39.475Z,4.80
2018-01-27T20:37:07.869Z,4.70
2018-01-27T20:39:36.204Z,4.80
2018-01-27T20:42:04.539Z,4.80
2018-01-27T20:44:33.141Z,4.80
2018-01-27T20:47:01.479Z,4.80
2018-01-27T20:49:29.795Z,4.70
2018-01-27T20:51:58.134Z,4.70
2018-01-27T20:54:26.454Z,4.70
2018-01-27T20:56:54.785Z,4.70
2018-01-27T20:59:23.105Z,4.70
2018-01-27T21:01:51.447Z,4.70
2018-01-27T21:04:19.752Z,4.60
2018-01-27T21:06:48.086Z,4.70
2018-01-27T21:09:16.396Z,4.70
2018-01-27T21:11:44.767Z,4.60
2018-01-27T21:14:13.078Z,4.60
2018-01-27T21:16:41.412Z,4.60
2018-01-27T21:19:09.724Z,4.60
2018-01-27T21:21:38.101Z,4.60
2018-01-27T21:24:06.418Z,4.60
2018-01-27T21:26:34.755Z,4.60
2018-01-27T21:29:03.076Z,4.60
2018-01-27T21:31:31.407Z,4.60
2018-01-27T21:33:59.722Z,4.60
2018-01-27T21:36:28.069Z,4.60
2018-01-27T21:38:56.386Z,4.70
2018-01-27T21:41:24.719Z,4.60
2018-01-27T21:43:52.262Z,4.60
2018-01-27T21:46:20.595Z,4.60
2018-01-27T21:48:48.914Z,4.70
2018-01-27T21:51:17.247Z,4.60
2018-01-27T21:53:45.559Z,4.60
2018-01-27T21:56:13.897Z,4.60
2018-01-27T21:58:42.217Z,4.60
2018-01-27T22:01:10.530Z,4.60
2018-01-27T22:03:38.858Z,4.60
2018-01-27T22:06:07.173Z,4.50
2018-01-27T22:08:35.515Z,4.50
2018-01-27T22:11:03.837Z,4.50
2018-01-27T22:13:32.174Z,4.50
2018-01-27T22:16:00.488Z,4.50
2018-01-27T22:18:28.827Z,4.40
2018-01-27T22:20:57.133Z,4.40
2018-01-27T22:23:25.463Z,4.50
2018-01-27T22:25:53.780Z,4.50
2018-01-27T22:28:22.119Z,4.50
2018-01-27T22:30:50.443Z,4.50
2018-01-27T22:33:18.775Z,4.40
2018-01-27T22:35:47.082Z,4.40
2018-01-27T22:38:15.419Z,4.40
2018-01-27T22:40:43.734Z,4.40
2018-01-27T22:43:12.088Z,4.40
2018-01-27T22:45:40.399Z,4.40
2018-01-27T22:48:08.730Z,4.40
2018-01-27T22:50:37.035Z,4.50
2018-01-27T22:53:05.365Z,4.50
2018-01-27T22:55:33.679Z,4.50
2018-01-27T22:58:02.010Z,4.50
2018-01-27T23:00:30.322Z,4.50
2018-01-27T23:02:58.660Z,4.50
2018-01-27T23:05:26.982Z,4.50
2018-01-27T23:07:55.321Z,4.50
2018-01-27T23:10:23.630Z,4.50
2018-01-27T23:12:51.974Z,4.50
2018-01-27T23:15:20.288Z,4.50
2018-01-27T23:17:48.636Z,4.40
2018-01-27T23:20:16.942Z,4.50
2018-01-27T23:22:45.274Z,4.40
2018-01-27T23:25:13.593Z,4.40
2018-01-27T23:27:41.947Z,4.50
2018-01-27T23:30:10.254Z,4.50
2018-01-27T23:32:38.589Z,4.40
2018-01-27T23:35:06.898Z,4.50
2018-01-27T23:37:35.239Z,4.40
2018-01-27T23:40:03.566Z,4.40
2018-01-27T23:42:31.888Z,4.40
2018-01-27T23:45:00.233Z,4.30
2018-01-27T23:47:28.549Z,4.30
2018-01-27T23:49:56.875Z,4.30
2018-01-27T23:52:25.183Z,4.30
2018-01-27T23:54:53.521Z,4.30
2018-01-27T23:57:21.843Z,4.30
2018-01-27T23:59:50.179Z,4.30
